createdAt,value
2022-10-23T00:01:14.154Z,1.17
2022-10-23T00:03:40.967Z,1.60
2022-10-23T00:06:08.022Z,1.42
2022-10-23T00:08:34.669Z,1.48
2022-10-23T00:11:01.835Z,1.58
2022-10-23T00:13:28.490Z,1.42
2022-10-23T00:15:55.141Z,1.30
2022-10-23T00:18:21.775Z,1.40
2022-10-23T00:20:48.406Z,1.08
2022-10-23T00:23:17.354Z,1.50
2022-10-23T00:25:44.005Z,1.30
2022-10-23T00:28:10.862Z,1.60
2022-10-23T00:30:37.529Z,1.58
2022-10-23T00:33:04.206Z,1.58
2022-10-23T00:35:30.856Z,1.75
2022-10-23T00:37:57.523Z,1.52
2022-10-23T00:40:24.248Z,1.23
2022-10-23T00:42:50.897Z,1.65
2022-10-23T00:45:25.590Z,1.40
2022-10-23T00:47:52.953Z,1.45
2022-10-23T00:50:23.119Z,1.40
2022-10-23T00:52:52.949Z,1.70
2022-10-23T00:55:22.302Z,1.42
2022-10-23T00:57:50.432Z,1.65
2022-10-23T01:00:24.713Z,1.70
2022-10-23T01:02:52.599Z,1.63
2022-10-23T01:05:27.194Z,1.60
2022-10-23T01:08:04.998Z,1.00
2022-10-23T01:10:40.247Z,1.33
2022-10-23T01:13:14.967Z,1.40
2022-10-23T01:15:53.699Z,1.42
2022-10-23T01:18:35.709Z,1.17
2022-10-23T01:21:16.966Z,1.23
2022-10-23T01:24:02.039Z,1.38
2022-10-23T01:26:45.632Z,1.20
2022-10-23T01:29:21.344Z,4.18
2022-10-23T01:32:09.759Z,1.73
2022-10-23T01:35:09.093Z,1.80
2022-10-23T01:37:51.372Z,1.10
2022-10-23T01:40:27.668Z,1.15
2022-10-23T01:42:58.392Z,1.13
2022-10-23T01:45:47.726Z,1.67
2022-10-23T01:48:19.292Z,1.30
2022-10-23T01:50:47.073Z,1.40
2022-10-23T01:53:13.757Z,1.20
2022-10-23T01:58:15.193Z,0.85
2022-10-23T02:00:44.965Z,1.00
2022-10-23T02:03:13.280Z,1.33
2022-10-23T02:05:39.915Z,1.30
2022-10-23T02:08:07.093Z,1.50
2022-10-23T02:11:03.425Z,1.60
2022-10-23T02:14:29.211Z,1.40
2022-10-23T02:17:01.878Z,1.30
2022-10-23T02:19:31.738Z,1.58
2022-10-23T02:22:17.175Z,1.00
2022-10-23T02:24:58.299Z,1.33
2022-10-23T02:27:50.612Z,1.70
2022-10-23T02:30:19.783Z,1.60
2022-10-23T02:32:50.136Z,1.73
2022-10-23T02:37:51.816Z,1.70
2022-10-23T02:40:18.574Z,1.80
2022-10-23T02:43:24.540Z,1.98
2022-10-23T02:46:18.289Z,2.03
2022-10-23T02:48:51.536Z,1.27
2022-10-23T02:51:31.932Z,1.73
2022-10-23T02:57:02.326Z,1.30
2022-10-23T02:59:40.876Z,1.30
2022-10-23T03:05:04.924Z,1.65
2022-10-23T03:07:31.932Z,1.27
2022-10-23T03:09:58.544Z,1.70
2022-10-23T03:12:25.286Z,1.83
2022-10-23T03:14:51.995Z,1.25
2022-10-23T03:17:18.648Z,1.38
2022-10-23T03:19:45.254Z,1.40
2022-10-23T03:22:11.890Z,1.40
2022-10-23T03:24:38.625Z,1.30
2022-10-23T03:27:05.299Z,1.40
2022-10-23T03:29:31.906Z,2.05
2022-10-23T03:31:58.671Z,1.60
2022-10-23T03:34:25.382Z,1.50
2022-10-23T03:36:52.014Z,1.52
2022-10-23T03:39:18.694Z,1.67
2022-10-23T03:41:45.351Z,1.90
2022-10-23T03:44:12.088Z,1.60
2022-10-23T03:46:38.824Z,2.05
2022-10-23T03:49:05.738Z,2.38
2022-10-23T03:51:32.409Z,1.65
2022-10-23T03:53:59.051Z,1.45
2022-10-23T03:56:25.720Z,1.80
2022-10-23T03:58:52.572Z,1.70
2022-10-23T04:01:19.365Z,1.70
2022-10-23T04:03:46.190Z,2.60
2022-10-23T04:06:12.923Z,2.17
2022-10-23T04:08:39.777Z,2.00
2022-10-23T04:11:06.422Z,2.15
2022-10-23T04:13:33.065Z,2.42
2022-10-23T04:15:59.719Z,2.10
2022-10-23T04:18:26.430Z,1.90
2022-10-23T04:20:53.173Z,1.83
2022-10-23T04:23:20.239Z,2.03
2022-10-23T04:28:14.523Z,2.20
2022-10-23T04:30:41.679Z,3.03
2022-10-23T04:33:08.399Z,2.28
2022-10-23T04:35:35.046Z,2.40
2022-10-23T04:38:01.682Z,2.38
2022-10-23T04:40:28.441Z,1.77
2022-10-23T04:42:55.058Z,1.58
2022-10-23T04:45:21.705Z,1.98
2022-10-23T04:47:48.335Z,1.75
2022-10-23T04:50:15.702Z,1.80
2022-10-23T04:52:42.640Z,1.70
2022-10-23T04:55:09.812Z,1.60
2022-10-23T04:57:36.496Z,1.77
2022-10-23T05:00:05.449Z,1.40
2022-10-23T05:02:32.297Z,1.70
2022-10-23T05:04:58.946Z,1.33
2022-10-23T05:07:25.618Z,1.70
2022-10-23T05:09:52.281Z,1.80
2022-10-23T05:12:19.990Z,2.10
2022-10-23T05:14:46.628Z,1.30
2022-10-23T05:17:18.382Z,1.17
2022-10-23T05:19:52.447Z,1.25
2022-10-23T05:22:20.824Z,1.50
2022-10-23T05:24:50.451Z,1.60
2022-10-23T05:27:17.516Z,1.50
2022-10-23T05:29:44.155Z,1.38
2022-10-23T05:32:14.486Z,1.38
2022-10-23T05:34:42.018Z,1.35
2022-10-23T05:37:12.328Z,1.90
2022-10-23T05:42:05.716Z,1.10
2022-10-23T05:44:32.355Z,1.48
2022-10-23T05:46:59.014Z,1.92
2022-10-23T05:49:26.677Z,1.90
2022-10-23T05:51:53.349Z,1.80
2022-10-23T05:54:20.058Z,1.20
2022-10-23T05:56:46.717Z,1.40
2022-10-23T05:59:13.337Z,2.00
2022-10-23T06:01:40.137Z,1.10
2022-10-23T06:04:06.925Z,2.20
2022-10-23T06:06:33.573Z,2.47
2022-10-23T06:09:00.247Z,2.25
2022-10-23T06:11:26.894Z,2.00
2022-10-23T06:13:53.602Z,2.45
2022-10-23T06:16:22.798Z,2.60
2022-10-23T06:18:49.518Z,2.08
2022-10-23T06:21:17.144Z,2.38
2022-10-23T06:23:45.033Z,2.45
2022-10-23T06:26:14.327Z,1.90
2022-10-23T06:28:41.272Z,1.98
2022-10-23T06:31:09.468Z,2.00
2022-10-23T06:33:36.746Z,2.00
2022-10-23T06:36:04.076Z,2.00
2022-10-23T06:38:36.631Z,2.35
2022-10-23T06:41:05.078Z,2.38
2022-10-23T06:43:32.843Z,1.98
2022-10-23T06:46:03.938Z,1.60
2022-10-23T06:48:31.338Z,1.88
2022-10-23T06:50:58.455Z,1.88
2022-10-23T06:53:25.625Z,1.90
2022-10-23T06:55:55.406Z,1.88
2022-10-23T06:58:22.452Z,1.95
2022-10-23T07:00:49.212Z,2.20
2022-10-23T07:03:16.082Z,2.55
2022-10-23T07:05:45.001Z,2.08
2022-10-23T07:08:11.885Z,1.77
2022-10-23T07:10:38.682Z,1.80
2022-10-23T07:13:05.487Z,1.40
2022-10-23T07:15:32.629Z,1.85
2022-10-23T07:17:59.323Z,1.60
2022-10-23T07:20:26.411Z,1.60
2022-10-23T07:22:55.154Z,1.73
2022-10-23T07:25:26.501Z,1.30
2022-10-23T07:27:55.717Z,1.73
2022-10-23T07:30:22.405Z,1.45
2022-10-23T07:32:49.056Z,1.30
2022-10-23T07:35:16.290Z,1.27
2022-10-23T07:37:43.326Z,1.58
2022-10-23T07:40:10.690Z,1.20
2022-10-23T07:42:38.819Z,2.70
2022-10-23T07:45:07.460Z,6.07
2022-10-23T07:47:34.308Z,6.03
2022-10-23T07:50:00.965Z,2.97
2022-10-23T07:52:31.959Z,1.60
2022-10-23T07:55:01.770Z,2.75
2022-10-23T07:57:28.412Z,2.85
2022-10-23T07:59:55.106Z,3.88
2022-10-23T08:02:21.793Z,1.40
2022-10-23T08:04:51.249Z,3.03
2022-10-23T08:07:17.956Z,2.40
2022-10-23T08:09:44.630Z,2.70
2022-10-23T08:12:11.369Z,5.20
2022-10-23T08:14:38.005Z,4.97
2022-10-23T08:17:05.333Z,5.03
2022-10-23T08:19:32.317Z,3.53
2022-10-23T08:21:59.025Z,3.30
2022-10-23T08:24:25.695Z,2.78
2022-10-23T08:26:52.341Z,2.53
2022-10-23T08:29:19.032Z,2.28
2022-10-23T08:31:45.697Z,2.58
2022-10-23T08:34:12.818Z,2.17
2022-10-23T08:36:39.846Z,2.03
2022-10-23T08:39:06.894Z,2.20
2022-10-23T08:41:36.486Z,1.75
2022-10-23T08:44:18.453Z,2.22
2022-10-23T08:46:49.458Z,2.40
2022-10-23T08:53:16.883Z,1.52
2022-10-23T08:55:47.126Z,2.17
2022-10-23T08:58:41.738Z,2.28
2022-10-23T09:01:38.700Z,2.65
2022-10-23T09:04:06.285Z,2.80
2022-10-23T09:06:54.542Z,2.83
2022-10-23T09:09:29.897Z,2.90
2022-10-23T09:12:09.349Z,2.50
2022-10-23T09:14:57.661Z,2.50
2022-10-23T09:17:24.344Z,2.38
2022-10-23T09:20:06.283Z,2.72
2022-10-23T09:22:32.973Z,2.40
2022-10-23T09:24:59.637Z,2.10
2022-10-23T09:27:26.286Z,2.35
2022-10-23T09:29:55.558Z,2.67
2022-10-23T09:32:36.946Z,2.42
2022-10-23T09:35:05.159Z,2.08
2022-10-23T09:37:34.416Z,2.17
2022-10-23T09:40:02.744Z,2.20
2022-10-23T09:42:29.489Z,2.10
2022-10-23T09:44:57.506Z,2.15
2022-10-23T09:47:25.746Z,2.53
2022-10-23T09:49:55.437Z,2.55
2022-10-23T09:52:34.847Z,2.25
2022-10-23T09:55:15.586Z,2.65
2022-10-23T09:57:44.403Z,1.80
2022-10-23T10:00:14.274Z,1.70
2022-10-23T10:02:42.854Z,1.45
2022-10-23T10:05:31.666Z,1.48
2022-10-23T10:08:13.366Z,2.03
2022-10-23T10:10:51.358Z,1.70
2022-10-23T10:13:33.248Z,1.63
2022-10-23T10:16:15.841Z,1.50
2022-10-23T10:19:12.645Z,1.88
2022-10-23T10:21:57.943Z,1.80
2022-10-23T10:24:46.459Z,1.85
2022-10-23T10:27:42.624Z,2.08
2022-10-23T10:30:21.633Z,1.73
2022-10-23T10:33:21.854Z,1.80
2022-10-23T10:35:51.239Z,1.50
2022-10-23T10:38:36.402Z,1.57
2022-10-23T10:41:44.277Z,1.83
2022-10-23T10:44:10.883Z,1.45
2022-10-23T10:46:55.064Z,1.60
2022-10-23T10:49:40.662Z,1.38
2022-10-23T10:52:28.671Z,1.63
2022-10-23T10:55:16.933Z,1.48
2022-10-23T10:57:59.989Z,1.60
2022-10-23T11:00:29.775Z,1.30
2022-10-23T11:03:19.488Z,1.30
2022-10-23T11:05:50.468Z,1.92
2022-10-23T11:08:22.307Z,1.70
2022-10-23T11:10:53.290Z,1.45
2022-10-23T11:13:40.500Z,1.42
2022-10-23T11:16:25.512Z,1.65
2022-10-23T11:19:14.086Z,1.52
2022-10-23T11:22:03.927Z,1.58
2022-10-23T11:25:07.949Z,1.65
2022-10-23T11:27:41.857Z,1.98
2022-10-23T11:30:22.986Z,1.20
2022-10-23T11:33:08.545Z,1.23
2022-10-23T11:36:05.944Z,1.30
2022-10-23T11:38:36.459Z,1.27
2022-10-23T11:41:21.130Z,1.20
2022-10-23T11:44:01.453Z,1.30
2022-10-23T11:46:36.438Z,2.17
2022-10-23T11:49:06.128Z,1.60
2022-10-23T11:51:40.239Z,1.00
2022-10-23T11:54:24.511Z,1.00
2022-10-23T11:56:56.319Z,1.20
2022-10-23T11:59:27.532Z,1.00
2022-10-23T12:01:56.350Z,1.23
2022-10-23T12:04:55.393Z,0.93
2022-10-23T12:07:31.896Z,1.27
2022-10-23T12:10:34.395Z,1.10
2022-10-23T12:13:06.546Z,1.13
2022-10-23T12:15:34.907Z,1.30
2022-10-23T12:18:15.717Z,1.13
2022-10-23T12:20:56.446Z,1.10
2022-10-23T12:23:53.158Z,1.42
2022-10-23T12:26:33.298Z,1.00
2022-10-23T12:29:17.653Z,1.10
2022-10-23T12:31:57.276Z,1.10
2022-10-23T12:34:40.043Z,1.00
2022-10-23T12:37:32.252Z,1.75
2022-10-23T12:39:59.283Z,1.20
2022-10-23T12:42:28.950Z,1.42
2022-10-23T12:45:02.350Z,1.38
2022-10-23T12:47:30.193Z,1.52
2022-10-23T12:49:57.078Z,1.35
2022-10-23T12:52:25.269Z,1.67
2022-10-23T12:54:52.173Z,1.10
2022-10-23T12:57:28.068Z,1.42
2022-10-23T13:00:08.332Z,1.00
2022-10-23T13:05:05.477Z,1.42
2022-10-23T13:10:01.807Z,1.27
2022-10-23T13:12:31.529Z,1.20
2022-10-23T13:15:03.084Z,1.27
2022-10-23T13:17:45.116Z,0.98
2022-10-23T13:20:22.989Z,1.45
2022-10-23T13:22:57.748Z,1.08
2022-10-23T13:25:32.819Z,1.27
2022-10-23T13:28:08.554Z,1.60
2022-10-23T13:30:42.744Z,1.00
2022-10-23T13:33:22.821Z,0.98
2022-10-23T13:36:19.402Z,0.90
2022-10-23T13:39:08.962Z,1.10
2022-10-23T13:41:45.785Z,1.20
2022-10-23T13:44:18.576Z,1.08
2022-10-23T13:46:46.133Z,1.10
2022-10-23T13:49:12.904Z,1.20
2022-10-23T13:51:52.134Z,1.00
2022-10-23T13:56:59.274Z,2.05
2022-10-23T13:59:26.017Z,1.90
2022-10-23T14:01:53.062Z,1.13
2022-10-23T14:04:20.711Z,1.40
2022-10-23T14:06:47.789Z,1.20
2022-10-23T14:09:17.181Z,1.80
2022-10-23T14:11:44.593Z,1.60
2022-10-23T14:14:11.721Z,2.35
2022-10-23T14:16:38.369Z,1.15
2022-10-23T14:19:05.095Z,1.10
2022-10-23T14:21:31.775Z,1.67
2022-10-23T14:23:58.418Z,1.00
2022-10-23T14:26:30.463Z,1.00
2022-10-23T14:29:00.687Z,1.20
2022-10-23T14:31:31.097Z,1.20
2022-10-23T14:34:00.685Z,1.45
2022-10-23T14:36:38.327Z,1.35
2022-10-23T14:39:15.450Z,1.23
2022-10-23T14:41:42.083Z,1.00
2022-10-23T14:44:08.746Z,1.90
2022-10-23T14:46:36.246Z,1.50
2022-10-23T14:49:02.888Z,1.70
2022-10-23T14:51:30.247Z,1.40
2022-10-23T14:54:04.863Z,1.50
2022-10-23T14:56:34.326Z,1.60
2022-10-23T14:59:04.376Z,1.73
2022-10-23T15:01:32.195Z,1.67
2022-10-23T15:03:58.965Z,1.70
2022-10-23T15:06:25.738Z,1.65
2022-10-23T15:08:55.157Z,1.83
2022-10-23T15:11:22.558Z,1.60
2022-10-23T15:13:49.235Z,1.90
2022-10-23T15:16:16.534Z,2.67
2022-10-23T15:18:43.184Z,2.53
2022-10-23T15:21:10.255Z,2.65
2022-10-23T15:23:38.905Z,2.83
2022-10-23T15:26:08.469Z,2.67
2022-10-23T15:28:35.279Z,3.08
2022-10-23T15:31:01.988Z,2.70
2022-10-23T15:33:29.070Z,3.25
2022-10-23T15:35:56.137Z,3.22
2022-10-23T15:38:23.477Z,3.75
2022-10-23T15:40:50.168Z,2.35
2022-10-23T15:43:17.492Z,3.40
2022-10-23T15:45:45.253Z,3.30
2022-10-23T15:48:12.746Z,3.40
2022-10-23T15:50:39.406Z,3.90
2022-10-23T15:53:06.040Z,2.80
2022-10-23T15:55:32.706Z,3.67
2022-10-23T15:58:04.033Z,3.05
2022-10-23T16:00:30.778Z,3.92
2022-10-23T16:02:57.843Z,4.03
2022-10-23T16:05:24.537Z,5.43
2022-10-23T16:07:51.215Z,4.05
2022-10-23T16:10:18.002Z,3.28
2022-10-23T16:12:44.898Z,3.53
2022-10-23T16:15:11.686Z,3.92
2022-10-23T16:17:38.415Z,5.15
2022-10-23T16:20:05.469Z,3.83
2022-10-23T16:22:32.112Z,3.70
2022-10-23T16:24:58.782Z,3.47
2022-10-23T16:27:25.472Z,4.07
2022-10-23T16:29:52.222Z,3.63
2022-10-23T16:32:18.883Z,3.40
2022-10-23T16:34:46.029Z,4.25
2022-10-23T16:37:12.658Z,4.40
2022-10-23T16:39:39.356Z,4.50
2022-10-23T16:42:06.354Z,4.20
2022-10-23T16:44:33.038Z,3.88
2022-10-23T16:46:59.685Z,2.13
2022-10-23T16:49:26.416Z,3.72
2022-10-23T16:51:53.130Z,3.30
2022-10-23T16:54:19.850Z,4.70
2022-10-23T16:56:47.283Z,3.67
2022-10-23T16:59:14.340Z,3.72
2022-10-23T17:01:41.038Z,4.22
2022-10-23T17:04:10.983Z,4.05
2022-10-23T17:06:37.687Z,4.07
2022-10-23T17:09:05.201Z,4.20
2022-10-23T17:11:34.957Z,3.80
2022-10-23T17:14:07.300Z,3.58
2022-10-23T17:16:38.787Z,3.55
2022-10-23T17:21:55.870Z,2.92
2022-10-23T17:24:23.049Z,2.58
2022-10-23T17:26:49.711Z,2.63
2022-10-23T17:29:16.914Z,2.97
2022-10-23T17:31:46.837Z,2.80
2022-10-23T17:34:17.783Z,1.85
2022-10-23T17:36:48.804Z,1.65
2022-10-23T17:39:18.452Z,2.08
2022-10-23T17:41:45.400Z,1.80
2022-10-23T17:44:12.082Z,2.20
2022-10-23T17:46:38.913Z,2.90
2022-10-23T17:49:06.175Z,3.45
2022-10-23T17:51:34.985Z,2.15
2022-10-23T17:54:05.465Z,2.20
2022-10-23T17:56:33.580Z,1.73
2022-10-23T17:59:03.710Z,1.67
2022-10-23T18:01:31.563Z,1.27
2022-10-23T18:04:02.597Z,2.10
2022-10-23T18:06:32.573Z,1.40
2022-10-23T18:09:01.354Z,1.08
2022-10-23T18:11:33.843Z,1.35
2022-10-23T18:14:01.399Z,1.30
2022-10-23T18:16:28.199Z,1.20
2022-10-23T18:18:55.091Z,1.10
2022-10-23T18:21:23.982Z,1.17
2022-10-23T18:23:51.131Z,1.48
2022-10-23T18:26:23.817Z,1.73
2022-10-23T18:28:52.670Z,1.73
2022-10-23T18:31:20.816Z,1.00
2022-10-23T18:33:47.698Z,1.02
2022-10-23T18:36:14.371Z,1.08
2022-10-23T18:38:41.182Z,2.75
2022-10-23T18:41:07.957Z,1.27
2022-10-23T18:43:49.150Z,0.70
2022-10-23T18:46:16.153Z,0.93
2022-10-23T18:48:43.519Z,1.10
2022-10-23T18:51:15.688Z,1.30
2022-10-23T18:53:43.164Z,1.00
2022-10-23T18:56:09.813Z,1.40
2022-10-23T18:58:36.445Z,1.67
2022-10-23T19:01:03.319Z,1.05
2022-10-23T19:03:30.024Z,1.05
2022-10-23T19:05:56.739Z,0.90
2022-10-23T19:08:23.386Z,1.08
2022-10-23T19:10:51.791Z,1.00
